Flight Track Log - Related Links

Times and Time Zones

All times are in EDT time to prevent confusion due to time zone crossing. See the EJA929 flight status page for this flight to view local times or setup timezone preferences in your user account.

Time Position Orientation Groundspeed Altitude Reporting Facility
EDT Latitude Longitude Course Direction KTS MPH feet Rate Location/Type
Wed 06:50:42 PM 42.9333 -87.9167 180° South 153 176 1,800  Level KMKE
Wed 06:51:42 PM 42.9000 -87.9167 180° South 221 254 5,800 3,669 Climbing KMKE
Wed 06:53:01 PM 42.8233 -87.8419 144° Southeast 264 304 10,300 3,319 Climbing Chicago Center
Wed 06:54:03 PM 42.7392 -87.8108 165° South 311 358 13,600 3,339 Climbing Chicago Center
Wed 06:55:05 PM 42.6164 -87.7911 173° South 366 421 17,200 3,194 Climbing Chicago Center
Wed 06:56:07 PM 42.5189 -87.8092 188° South 353 406 20,200 2,736 Climbing Chicago Center
Wed 06:57:10 PM 42.4186 -87.8278 188° South 362 417 22,900 2,448 Climbing Chicago Center
Wed 06:58:12 PM 42.3133 -87.8483 188° South 375 432 25,300 2,226 Climbing Chicago Center
Wed 06:59:14 PM 42.2025 -87.8678 187° South 395 455 27,500 1,306 Climbing Chicago Center
Wed 07:00:16 PM 42.0850 -87.8919 189° South 419 482 28,000 242 Climbing Chicago Center
Wed 07:01:18 PM 41.9283 -87.9200 188° South 465 535 28,000  Level Chicago Center
Wed 07:02:20 PM 41.7950 -87.9450 188° South 483 556 28,000  Level Chicago Center
Wed 07:03:22 PM 41.6625 -87.9692 188° South 483 556 28,000  Level Chicago Center
Wed 07:04:24 PM 41.5286 -87.9933 188° South 485 558 28,000  Level Chicago Center
Wed 07:05:26 PM 41.3794 -88.0222 188° South 484 557 28,000  Level Chicago Center
Wed 07:06:28 PM 41.2558 -88.0436 187° South 476 548 28,000  Level Chicago Center
Wed 07:07:31 PM 41.1242 -88.0678 188° South 477 549 28,000  Level Chicago Center
Wed 07:08:33 PM 40.9925 -88.0919 188° South 479 551 28,000  Level Chicago Center
Wed 07:09:35 PM 40.8372 -88.1247 189° South 474 545 28,000  Level Chicago Center
Wed 07:10:37 PM 40.7192 -88.1931 204° Southwest 463 533 28,000  Level Chicago Center
Wed 07:11:39 PM 40.6050 -88.2633 205° Southwest 457 526 28,000  Level Chicago Center
Wed 07:12:41 PM 40.4883 -88.3339 205° Southwest 461 531 28,000  Level Chicago Center
Wed 07:13:43 PM 40.3722 -88.4056 205° Southwest 463 533 28,000  Level Chicago Center
Wed 07:14:45 PM 40.2356 -88.4872 205° Southwest 454 522 28,000  Level Chicago Center
Wed 07:15:47 PM 40.1283 -88.5522 205° Southwest 457 526 28,000  Level Chicago Center
Wed 07:16:49 PM 40.0139 -88.6200 204° Southwest 452 520 28,000  Level Chicago Center
Wed 07:17:51 PM 39.8997 -88.6881 205° Southwest 450 518 28,000  Level Chicago Center
Wed 07:18:43 PM 39.8081 -88.7414 204° Southwest 449 517 28,000  Level Kansas City Center
Wed 07:19:44 PM 39.6736 -88.8217 205° Southwest 447 514 28,000  Level Kansas City Center
Wed 07:20:48 PM 39.5622 -88.8872 204° Southwest 446 513 28,000 -960 Level Kansas City Center
Wed 07:21:49 PM 39.4503 -88.9539 205° Southwest 444 511 26,000 -1,920 Descending Kansas City Center
Wed 07:22:53 PM 39.3497 -89.0114 204° Southwest 414 476 24,000 -1,872 Descending Kansas City Center
Wed 07:23:54 PM 39.2625 -89.0644 205° Southwest 364 419 22,100 -1,820 Descending Kansas City Center
Wed 07:24:55 PM 39.1789 -89.1139 205° Southwest 338 389 20,300 -1,839 Descending Kansas City Center
Wed 07:25:58 PM 39.0906 -89.1894 214° Southwest 324 373 18,300 -1,790 Descending Kansas City Center
Wed 07:26:59 PM 39.0647 -89.2911 252° West 302 348 16,600 -1,597 Descending Kansas City Center
Wed 07:28:02 PM 39.0422 -89.3911 254° West 296 341 15,000 -1,548 Descending Kansas City Center
Wed 07:29:03 PM 39.0194 -89.4931 254° West 296 341 13,400 -1,548 Descending Kansas City Center
Wed 07:30:06 PM 38.9961 -89.5936 253° West 296 341 11,800 -1,536 Descending Kansas City Center
Wed 07:31:08 PM 38.9381 -89.6692 225° Southwest 295 339 10,200 -864 Descending Kansas City Center
Wed 07:32:11 PM 38.8722 -89.7497 224° Southwest 279 321 10,000 -629 Descending Kansas City Center
Wed 07:33:12 PM 38.8214 -89.8150 225° Southwest 264 304 8,900 -1,306 Descending Kansas City Center
Wed 07:34:15 PM 38.7686 -89.8800 224° Southwest 263 303 7,300 -1,659 Descending Kansas City Center
Wed 07:35:15 PM 38.7383 -89.9572 243° Southwest 255 293 5,500 -1,403 Descending Kansas City Center
Wed 07:36:19 PM 38.7122 -90.0344 247° West 243 280 4,400 -960 Descending Kansas City Center
Wed 07:37:20 PM 38.6886 -90.1072 247° West 231 266 3,500 -689 Descending Kansas City Center
Wed 07:38:21 PM 38.6875 -90.1833 269° West 193 222 3,000 -624 Descending Kansas City Center
Wed 07:39:25 PM 38.6919 -90.2447 275° West 185 213 2,200 -672 Descending Kansas City Center
Wed 07:40:26 PM 38.7136 -90.2889 302° West 162 186 1,600 -624 Descending Kansas City Center
Wed 07:41:30 PM 38.7311 -90.3247 302° West 137 158 900 -476 Descending Kansas City Center
Wed 07:42:32 PM 38.7503 -90.3619 303° West 126 145 600 -290 Descending Kansas City Center

Login

Don't have an account? Register now (free) for customized features, flight alerts, and more!